sensor_id;sensor_type;location;lat;lon;timestamp;P1;durP1;ratioP1;P2;durP2;ratioP2
54261;SDS011;40174;52.364;6.452;2022-12-18T00:01:36;65.80;;;14.05;;
54261;SDS011;40174;52.364;6.452;2022-12-18T00:04:07;43.60;;;14.00;;
54261;SDS011;40174;52.364;6.452;2022-12-18T00:06:43;62.28;;;15.90;;
54261;SDS011;40174;52.364;6.452;2022-12-18T00:09:09;58.10;;;14.48;;
54261;SDS011;40174;52.364;6.452;2022-12-18T00:11:36;55.03;;;15.00;;
54261;SDS011;40174;52.364;6.452;2022-12-18T00:14:03;53.50;;;14.32;;
54261;SDS011;40174;52.364;6.452;2022-12-18T00:16:30;63.25;;;15.07;;
54261;SDS011;40174;52.364;6.452;2022-12-18T00:18:58;54.90;;;14.95;;
54261;SDS011;40174;52.364;6.452;2022-12-18T00:21:26;60.60;;;14.77;;
54261;SDS011;40174;52.364;6.452;2022-12-18T00:23:55;63.03;;;15.82;;
54261;SDS011;40174;52.364;6.452;2022-12-18T00:26:22;49.97;;;16.50;;
54261;SDS011;40174;52.364;6.452;2022-12-18T00:28:55;52.60;;;14.98;;
54261;SDS011;40174;52.364;6.452;2022-12-18T00:31:24;51.28;;;12.98;;
54261;SDS011;40174;52.364;6.452;2022-12-18T00:33:53;57.25;;;13.75;;
54261;SDS011;40174;52.364;6.452;2022-12-18T00:36:21;36.95;;;11.65;;
54261;SDS011;40174;52.364;6.452;2022-12-18T00:38:50;53.70;;;14.43;;
54261;SDS011;40174;52.364;6.452;2022-12-18T00:41:19;44.38;;;13.27;;
54261;SDS011;40174;52.364;6.452;2022-12-18T00:43:59;52.70;;;13.73;;
54261;SDS011;40174;52.364;6.452;2022-12-18T00:46:26;75.40;;;14.82;;
54261;SDS011;40174;52.364;6.452;2022-12-18T00:48:53;67.75;;;12.98;;
54261;SDS011;40174;52.364;6.452;2022-12-18T00:51:19;54.67;;;13.40;;
54261;SDS011;40174;52.364;6.452;2022-12-18T00:53:46;57.25;;;15.52;;
54261;SDS011;40174;52.364;6.452;2022-12-18T00:56:13;63.15;;;15.50;;
54261;SDS011;40174;52.364;6.452;2022-12-18T00:58:41;64.78;;;12.65;;
54261;SDS011;40174;52.364;6.452;2022-12-18T01:01:07;68.55;;;14.00;;
54261;SDS011;40174;52.364;6.452;2022-12-18T01:03:34;62.17;;;15.90;;
54261;SDS011;40174;52.364;6.452;2022-12-18T01:06:05;45.42;;;13.57;;
54261;SDS011;40174;52.364;6.452;2022-12-18T01:08:32;56.58;;;14.55;;
54261;SDS011;40174;52.364;6.452;2022-12-18T01:10:59;46.58;;;14.38;;
54261;SDS011;40174;52.364;6.452;2022-12-18T01:13:26;56.28;;;13.13;;
54261;SDS011;40174;52.364;6.452;2022-12-18T01:15:54;52.28;;;13.82;;
54261;SDS011;40174;52.364;6.452;2022-12-18T01:18:21;42.47;;;12.55;;
54261;SDS011;40174;52.364;6.452;2022-12-18T01:20:47;55.13;;;13.30;;
54261;SDS011;40174;52.364;6.452;2022-12-18T01:23:14;46.78;;;14.10;;
54261;SDS011;40174;52.364;6.452;2022-12-18T01:25:40;52.42;;;15.40;;
54261;SDS011;40174;52.364;6.452;2022-12-18T01:28:08;49.17;;;12.40;;
54261;SDS011;40174;52.364;6.452;2022-12-18T01:30:35;47.80;;;13.43;;
54261;SDS011;40174;52.364;6.452;2022-12-18T01:33:04;50.95;;;13.85;;
54261;SDS011;40174;52.364;6.452;2022-12-18T01:35:30;44.60;;;12.77;;
54261;SDS011;40174;52.364;6.452;2022-12-18T01:37:57;51.58;;;11.77;;
54261;SDS011;40174;52.364;6.452;2022-12-18T01:40:24;45.83;;;12.82;;
54261;SDS011;40174;52.364;6.452;2022-12-18T01:42:51;43.47;;;12.35;;
54261;SDS011;40174;52.364;6.452;2022-12-18T01:45:21;49.28;;;13.05;;
54261;SDS011;40174;52.364;6.452;2022-12-18T01:47:50;36.45;;;11.18;;
54261;SDS011;40174;52.364;6.452;2022-12-18T01:50:21;47.35;;;14.23;;
54261;SDS011;40174;52.364;6.452;2022-12-18T01:52:52;51.95;;;14.32;;
54261;SDS011;40174;52.364;6.452;2022-12-18T01:55:22;44.97;;;11.60;;
54261;SDS011;40174;52.364;6.452;2022-12-18T01:57:51;42.47;;;11.48;;
54261;SDS011;40174;52.364;6.452;2022-12-18T02:00:20;52.15;;;12.80;;
54261;SDS011;40174;52.364;6.452;2022-12-18T02:02:50;48.45;;;12.57;;
54261;SDS011;40174;52.364;6.452;2022-12-18T02:05:19;50.13;;;13.80;;
54261;SDS011;40174;52.364;6.452;2022-12-18T02:07:58;61.05;;;11.38;;
54261;SDS011;40174;52.364;6.452;2022-12-18T02:10:34;49.13;;;13.93;;
54261;SDS011;40174;52.364;6.452;2022-12-18T02:13:09;50.15;;;14.50;;
54261;SDS011;40174;52.364;6.452;2022-12-18T02:15:42;38.65;;;12.00;;
54261;SDS011;40174;52.364;6.452;2022-12-18T02:18:14;36.28;;;12.25;;
54261;SDS011;40174;52.364;6.452;2022-12-18T02:20:47;61.75;;;14.80;;
54261;SDS011;40174;52.364;6.452;2022-12-18T02:23:24;40.15;;;12.38;;
54261;SDS011;40174;52.364;6.452;2022-12-18T02:26:09;41.30;;;11.60;;
54261;SDS011;40174;52.364;6.452;2022-12-18T02:28:51;39.45;;;10.75;;
54261;SDS011;40174;52.364;6.452;2022-12-18T02:31:23;42.72;;;12.70;;
54261;SDS011;40174;52.364;6.452;2022-12-18T02:33:52;39.20;;;12.18;;
54261;SDS011;40174;52.364;6.452;2022-12-18T02:43:32;34.92;;;9.30;;
54261;SDS011;40174;52.364;6.452;2022-12-18T02:46:00;41.08;;;10.98;;
54261;SDS011;40174;52.364;6.452;2022-12-18T02:48:43;45.15;;;12.27;;
54261;SDS011;40174;52.364;6.452;2022-12-18T02:51:14;32.72;;;11.98;;
54261;SDS011;40174;52.364;6.452;2022-12-18T02:53:49;45.95;;;13.90;;
54261;SDS011;40174;52.364;6.452;2022-12-18T02:56:20;54.60;;;13.98;;
54261;SDS011;40174;52.364;6.452;2022-12-18T02:58:55;46.35;;;12.32;;
54261;SDS011;40174;52.364;6.452;2022-12-18T03:01:33;38.70;;;12.13;;
54261;SDS011;40174;52.364;6.452;2022-12-18T03:04:06;39.28;;;11.35;;
54261;SDS011;40174;52.364;6.452;2022-12-18T03:06:39;47.00;;;14.23;;
54261;SDS011;40174;52.364;6.452;2022-12-18T03:09:09;33.13;;;11.93;;
54261;SDS011;40174;52.364;6.452;2022-12-18T03:11:41;44.47;;;10.98;;
54261;SDS011;40174;52.364;6.452;2022-12-18T03:14:31;29.55;;;10.65;;
54261;SDS011;40174;52.364;6.452;2022-12-18T03:17:05;49.33;;;11.80;;
54261;SDS011;40174;52.364;6.452;2022-12-18T03:19:39;40.73;;;12.73;;
54261;SDS011;40174;52.364;6.452;2022-12-18T03:22:08;40.35;;;14.05;;
54261;SDS011;40174;52.364;6.452;2022-12-18T03:24:43;44.00;;;11.40;;
54261;SDS011;40174;52.364;6.452;2022-12-18T03:27:12;36.97;;;10.27;;
54261;SDS011;40174;52.364;6.452;2022-12-18T03:29:45;33.72;;;9.82;;
54261;SDS011;40174;52.364;6.452;2022-12-18T03:32:20;44.55;;;13.05;;
54261;SDS011;40174;52.364;6.452;2022-12-18T03:34:55;38.58;;;11.20;;
54261;SDS011;40174;52.364;6.452;2022-12-18T03:37:32;32.80;;;11.82;;
54261;SDS011;40174;52.364;6.452;2022-12-18T03:39:59;44.83;;;12.35;;
54261;SDS011;40174;52.364;6.452;2022-12-18T03:42:28;28.48;;;9.35;;
54261;SDS011;40174;52.364;6.452;2022-12-18T03:45:09;32.70;;;10.77;;
54261;SDS011;40174;52.364;6.452;2022-12-18T03:47:47;39.38;;;9.57;;
54261;SDS011;40174;52.364;6.452;2022-12-18T03:50:29;43.53;;;12.48;;
54261;SDS011;40174;52.364;6.452;2022-12-18T03:53:06;30.35;;;10.00;;
54261;SDS011;40174;52.364;6.452;2022-12-18T03:55:45;27.45;;;9.25;;
54261;SDS011;40174;52.364;6.452;2022-12-18T03:58:17;37.85;;;11.25;;
54261;SDS011;40174;52.364;6.452;2022-12-18T04:01:05;36.30;;;10.45;;
54261;SDS011;40174;52.364;6.452;2022-12-18T04:03:35;30.57;;;11.70;;
54261;SDS011;40174;52.364;6.452;2022-12-18T04:06:05;28.40;;;10.82;;
54261;SDS011;40174;52.364;6.452;2022-12-18T04:08:33;27.70;;;10.75;;
54261;SDS011;40174;52.364;6.452;2022-12-18T04:11:04;27.80;;;8.88;;
54261;SDS011;40174;52.364;6.452;2022-12-18T04:13:33;35.65;;;11.40;;
54261;SDS011;40174;52.364;6.452;2022-12-18T04:16:06;55.33;;;14.52;;
54261;SDS011;40174;52.364;6.452;2022-12-18T04:18:38;33.63;;;10.50;;
54261;SDS011;40174;52.364;6.452;2022-12-18T04:21:05;28.33;;;9.48;;
54261;SDS011;40174;52.364;6.452;2022-12-18T04:23:32;28.48;;;9.55;;
54261;SDS011;40174;52.364;6.452;2022-12-18T04:25:59;25.75;;;9.40;;
54261;SDS011;40174;52.364;6.452;2022-12-18T04:28:38;31.33;;;9.63;;
54261;SDS011;40174;52.364;6.452;2022-12-18T04:31:06;37.15;;;9.25;;
54261;SDS011;40174;52.364;6.452;2022-12-18T04:33:33;23.98;;;10.30;;
54261;SDS011;40174;52.364;6.452;2022-12-18T04:36:00;23.85;;;7.68;;
54261;SDS011;40174;52.364;6.452;2022-12-18T04:38:27;30.27;;;9.65;;
54261;SDS011;40174;52.364;6.452;2022-12-18T04:41:01;42.97;;;11.65;;
54261;SDS011;40174;52.364;6.452;2022-12-18T04:43:28;23.83;;;8.70;;
54261;SDS011;40174;52.364;6.452;2022-12-18T04:46:00;45.33;;;10.07;;
54261;SDS011;40174;52.364;6.452;2022-12-18T04:48:29;31.10;;;9.55;;
54261;SDS011;40174;52.364;6.452;2022-12-18T04:50:56;27.42;;;9.98;;
54261;SDS011;40174;52.364;6.452;2022-12-18T04:53:22;41.70;;;12.25;;
54261;SDS011;40174;52.364;6.452;2022-12-18T04:55:49;22.52;;;8.75;;
54261;SDS011;40174;52.364;6.452;2022-12-18T04:58:15;29.98;;;10.20;;
54261;SDS011;40174;52.364;6.452;2022-12-18T05:00:42;24.90;;;8.70;;
54261;SDS011;40174;52.364;6.452;2022-12-18T05:03:09;31.15;;;8.75;;
54261;SDS011;40174;52.364;6.452;2022-12-18T05:05:37;38.22;;;10.65;;
54261;SDS011;40174;52.364;6.452;2022-12-18T05:08:04;32.88;;;8.65;;
54261;SDS011;40174;52.364;6.452;2022-12-18T05:10:30;28.65;;;9.82;;
54261;SDS011;40174;52.364;6.452;2022-12-18T05:12:57;30.10;;;10.52;;
54261;SDS011;40174;52.364;6.452;2022-12-18T05:15:24;23.92;;;9.07;;
54261;SDS011;40174;52.364;6.452;2022-12-18T05:17:52;27.52;;;9.30;;
54261;SDS011;40174;52.364;6.452;2022-12-18T05:20:19;21.27;;;8.10;;
54261;SDS011;40174;52.364;6.452;2022-12-18T05:22:47;32.00;;;8.85;;
54261;SDS011;40174;52.364;6.452;2022-12-18T05:25:13;35.30;;;8.70;;
54261;SDS011;40174;52.364;6.452;2022-12-18T05:27:40;21.40;;;6.70;;
54261;SDS011;40174;52.364;6.452;2022-12-18T05:30:07;25.45;;;9.18;;
54261;SDS011;40174;52.364;6.452;2022-12-18T05:32:35;23.85;;;7.40;;
54261;SDS011;40174;52.364;6.452;2022-12-18T05:35:01;25.23;;;7.35;;
54261;SDS011;40174;52.364;6.452;2022-12-18T05:37:28;25.02;;;9.02;;
54261;SDS011;40174;52.364;6.452;2022-12-18T05:39:56;29.83;;;7.60;;
54261;SDS011;40174;52.364;6.452;2022-12-18T05:42:23;25.63;;;7.85;;
54261;SDS011;40174;52.364;6.452;2022-12-18T05:44:49;26.48;;;8.60;;
54261;SDS011;40174;52.364;6.452;2022-12-18T05:47:16;24.52;;;8.13;;
54261;SDS011;40174;52.364;6.452;2022-12-18T05:49:42;26.63;;;7.88;;
54261;SDS011;40174;52.364;6.452;2022-12-18T05:52:09;20.08;;;6.97;;
54261;SDS011;40174;52.364;6.452;2022-12-18T05:54:36;32.80;;;8.68;;
54261;SDS011;40174;52.364;6.452;2022-12-18T05:57:04;24.50;;;7.55;;
54261;SDS011;40174;52.364;6.452;2022-12-18T05:59:30;29.17;;;7.93;;
54261;SDS011;40174;52.364;6.452;2022-12-18T06:01:57;22.63;;;7.85;;
54261;SDS011;40174;52.364;6.452;2022-12-18T06:04:23;28.23;;;8.68;;
54261;SDS011;40174;52.364;6.452;2022-12-18T06:06:56;21.80;;;7.47;;
54261;SDS011;40174;52.364;6.452;2022-12-18T06:09:23;19.85;;;6.35;;
54261;SDS011;40174;52.364;6.452;2022-12-18T06:11:50;28.23;;;6.70;;
54261;SDS011;40174;52.364;6.452;2022-12-18T06:14:19;25.73;;;7.95;;
54261;SDS011;40174;52.364;6.452;2022-12-18T06:16:45;22.55;;;8.15;;
54261;SDS011;40174;52.364;6.452;2022-12-18T06:19:14;19.15;;;6.78;;
54261;SDS011;40174;52.364;6.452;2022-12-18T06:21:42;23.33;;;6.05;;
54261;SDS011;40174;52.364;6.452;2022-12-18T06:24:08;17.05;;;6.60;;
54261;SDS011;40174;52.364;6.452;2022-12-18T06:26:36;17.10;;;7.43;;
54261;SDS011;40174;52.364;6.452;2022-12-18T06:29:03;15.48;;;6.50;;
54261;SDS011;40174;52.364;6.452;2022-12-18T06:31:31;22.55;;;7.32;;
54261;SDS011;40174;52.364;6.452;2022-12-18T06:33:57;22.67;;;6.78;;
54261;SDS011;40174;52.364;6.452;2022-12-18T06:36:24;23.67;;;6.38;;
54261;SDS011;40174;52.364;6.452;2022-12-18T06:38:51;25.98;;;8.45;;
54261;SDS011;40174;52.364;6.452;2022-12-18T06:41:18;27.42;;;8.20;;
54261;SDS011;40174;52.364;6.452;2022-12-18T06:43:46;22.70;;;7.00;;
54261;SDS011;40174;52.364;6.452;2022-12-18T06:46:13;17.55;;;7.30;;
54261;SDS011;40174;52.364;6.452;2022-12-18T06:48:41;31.92;;;9.93;;
54261;SDS011;40174;52.364;6.452;2022-12-18T06:51:07;19.85;;;7.40;;
54261;SDS011;40174;52.364;6.452;2022-12-18T06:53:34;17.83;;;6.95;;
54261;SDS011;40174;52.364;6.452;2022-12-18T06:56:01;22.98;;;8.38;;
54261;SDS011;40174;52.364;6.452;2022-12-18T06:58:29;25.40;;;6.43;;
54261;SDS011;40174;52.364;6.452;2022-12-18T07:00:59;18.20;;;7.47;;
54261;SDS011;40174;52.364;6.452;2022-12-18T07:03:26;23.00;;;7.28;;
54261;SDS011;40174;52.364;6.452;2022-12-18T07:05:54;19.25;;;6.20;;
54261;SDS011;40174;52.364;6.452;2022-12-18T07:08:20;16.05;;;5.32;;
54261;SDS011;40174;52.364;6.452;2022-12-18T07:10:47;18.45;;;8.02;;
54261;SDS011;40174;52.364;6.452;2022-12-18T07:13:15;22.58;;;6.82;;
54261;SDS011;40174;52.364;6.452;2022-12-18T07:15:42;19.58;;;6.70;;
54261;SDS011;40174;52.364;6.452;2022-12-18T07:18:08;18.80;;;7.13;;
54261;SDS011;40174;52.364;6.452;2022-12-18T07:20:35;38.20;;;8.85;;
54261;SDS011;40174;52.364;6.452;2022-12-18T07:23:03;25.25;;;7.03;;
54261;SDS011;40174;52.364;6.452;2022-12-18T07:25:33;17.38;;;7.25;;
54261;SDS011;40174;52.364;6.452;2022-12-18T07:27:59;22.55;;;8.93;;
54261;SDS011;40174;52.364;6.452;2022-12-18T07:30:26;13.88;;;6.55;;
54261;SDS011;40174;52.364;6.452;2022-12-18T07:32:53;20.02;;;8.65;;
54261;SDS011;40174;52.364;6.452;2022-12-18T07:35:19;24.67;;;7.90;;
54261;SDS011;40174;52.364;6.452;2022-12-18T07:37:46;16.95;;;5.95;;
54261;SDS011;40174;52.364;6.452;2022-12-18T07:40:14;22.70;;;7.28;;
54261;SDS011;40174;52.364;6.452;2022-12-18T07:42:40;18.35;;;6.82;;
54261;SDS011;40174;52.364;6.452;2022-12-18T07:45:07;22.80;;;8.23;;
54261;SDS011;40174;52.364;6.452;2022-12-18T07:47:34;21.20;;;6.55;;
54261;SDS011;40174;52.364;6.452;2022-12-18T07:50:02;18.80;;;8.50;;
54261;SDS011;40174;52.364;6.452;2022-12-18T07:52:28;24.73;;;8.10;;
54261;SDS011;40174;52.364;6.452;2022-12-18T07:54:55;33.70;;;10.75;;
54261;SDS011;40174;52.364;6.452;2022-12-18T07:57:23;18.20;;;6.05;;
54261;SDS011;40174;52.364;6.452;2022-12-18T07:59:50;21.95;;;6.75;;
54261;SDS011;40174;52.364;6.452;2022-12-18T08:02:17;22.77;;;6.50;;
54261;SDS011;40174;52.364;6.452;2022-12-18T08:04:43;16.50;;;6.70;;
54261;SDS011;40174;52.364;6.452;2022-12-18T08:07:10;22.77;;;7.43;;
54261;SDS011;40174;52.364;6.452;2022-12-18T08:09:36;15.77;;;8.05;;
54261;SDS011;40174;52.364;6.452;2022-12-18T08:12:03;18.15;;;7.45;;
54261;SDS011;40174;52.364;6.452;2022-12-18T08:14:32;15.75;;;6.80;;
54261;SDS011;40174;52.364;6.452;2022-12-18T08:16:58;21.13;;;8.27;;
54261;SDS011;40174;52.364;6.452;2022-12-18T08:19:25;24.58;;;7.65;;
54261;SDS011;40174;52.364;6.452;2022-12-18T08:21:51;17.15;;;7.25;;
54261;SDS011;40174;52.364;6.452;2022-12-18T08:24:18;25.10;;;9.30;;
54261;SDS011;40174;52.364;6.452;2022-12-18T08:26:45;20.10;;;6.80;;
54261;SDS011;40174;52.364;6.452;2022-12-18T08:29:11;12.70;;;4.85;;
54261;SDS011;40174;52.364;6.452;2022-12-18T08:31:39;15.20;;;5.90;;
54261;SDS011;40174;52.364;6.452;2022-12-18T08:34:06;26.20;;;7.45;;
54261;SDS011;40174;52.364;6.452;2022-12-18T08:36:33;20.85;;;7.72;;
54261;SDS011;40174;52.364;6.452;2022-12-18T08:39:00;19.60;;;8.48;;
54261;SDS011;40174;52.364;6.452;2022-12-18T08:41:27;21.67;;;7.13;;
54261;SDS011;40174;52.364;6.452;2022-12-18T08:43:53;17.25;;;6.57;;
54261;SDS011;40174;52.364;6.452;2022-12-18T08:46:40;24.55;;;8.07;;
54261;SDS011;40174;52.364;6.452;2022-12-18T08:49:08;20.75;;;7.15;;
54261;SDS011;40174;52.364;6.452;2022-12-18T08:51:36;17.73;;;6.60;;
54261;SDS011;40174;52.364;6.452;2022-12-18T08:54:04;16.58;;;6.88;;
54261;SDS011;40174;52.364;6.452;2022-12-18T08:56:31;19.20;;;6.03;;
54261;SDS011;40174;52.364;6.452;2022-12-18T08:58:58;15.23;;;5.68;;
54261;SDS011;40174;52.364;6.452;2022-12-18T09:01:24;16.45;;;7.20;;
54261;SDS011;40174;52.364;6.452;2022-12-18T09:03:52;20.80;;;6.38;;
54261;SDS011;40174;52.364;6.452;2022-12-18T09:06:20;18.35;;;6.85;;
54261;SDS011;40174;52.364;6.452;2022-12-18T09:08:47;14.93;;;6.18;;
54261;SDS011;40174;52.364;6.452;2022-12-18T09:11:15;15.65;;;5.93;;
54261;SDS011;40174;52.364;6.452;2022-12-18T09:13:46;17.30;;;6.43;;
54261;SDS011;40174;52.364;6.452;2022-12-18T09:16:13;19.63;;;7.65;;
54261;SDS011;40174;52.364;6.452;2022-12-18T09:18:39;22.90;;;7.50;;
54261;SDS011;40174;52.364;6.452;2022-12-18T09:21:11;11.25;;;5.70;;
54261;SDS011;40174;52.364;6.452;2022-12-18T09:23:39;14.73;;;5.50;;
54261;SDS011;40174;52.364;6.452;2022-12-18T09:26:06;15.02;;;6.10;;
54261;SDS011;40174;52.364;6.452;2022-12-18T09:28:33;16.52;;;5.88;;
54261;SDS011;40174;52.364;6.452;2022-12-18T09:31:03;12.88;;;5.90;;
54261;SDS011;40174;52.364;6.452;2022-12-18T09:33:31;15.48;;;6.32;;
54261;SDS011;40174;52.364;6.452;2022-12-18T09:36:00;14.18;;;6.97;;
54261;SDS011;40174;52.364;6.452;2022-12-18T09:38:28;18.20;;;6.82;;
54261;SDS011;40174;52.364;6.452;2022-12-18T09:40:57;21.23;;;7.22;;
54261;SDS011;40174;52.364;6.452;2022-12-18T09:43:27;20.13;;;5.70;;
54261;SDS011;40174;52.364;6.452;2022-12-18T09:46:01;20.55;;;5.55;;
54261;SDS011;40174;52.364;6.452;2022-12-18T09:48:32;18.98;;;7.07;;
54261;SDS011;40174;52.364;6.452;2022-12-18T09:51:03;20.92;;;6.38;;
54261;SDS011;40174;52.364;6.452;2022-12-18T09:53:38;12.07;;;5.20;;
54261;SDS011;40174;52.364;6.452;2022-12-18T09:56:11;16.63;;;6.93;;
54261;SDS011;40174;52.364;6.452;2022-12-18T09:58:43;13.77;;;5.43;;
54261;SDS011;40174;52.364;6.452;2022-12-18T10:01:15;12.32;;;5.07;;
54261;SDS011;40174;52.364;6.452;2022-12-18T10:03:46;14.70;;;6.05;;
54261;SDS011;40174;52.364;6.452;2022-12-18T10:06:14;9.05;;;5.10;;
54261;SDS011;40174;52.364;6.452;2022-12-18T10:08:47;10.27;;;4.50;;
54261;SDS011;40174;52.364;6.452;2022-12-18T10:11:22;13.38;;;4.88;;
54261;SDS011;40174;52.364;6.452;2022-12-18T10:14:00;13.02;;;6.20;;
54261;SDS011;40174;52.364;6.452;2022-12-18T10:16:35;12.85;;;5.00;;
54261;SDS011;40174;52.364;6.452;2022-12-18T10:19:12;10.45;;;5.78;;
54261;SDS011;40174;52.364;6.452;2022-12-18T10:21:51;13.93;;;5.28;;
54261;SDS011;40174;52.364;6.452;2022-12-18T10:24:28;15.90;;;5.70;;
54261;SDS011;40174;52.364;6.452;2022-12-18T10:27:04;12.85;;;5.55;;
54261;SDS011;40174;52.364;6.452;2022-12-18T10:29:38;13.35;;;5.35;;
54261;SDS011;40174;52.364;6.452;2022-12-18T10:32:05;13.52;;;5.13;;
54261;SDS011;40174;52.364;6.452;2022-12-18T10:34:33;14.50;;;5.70;;
54261;SDS011;40174;52.364;6.452;2022-12-18T10:37:00;18.08;;;5.70;;
54261;SDS011;40174;52.364;6.452;2022-12-18T10:39:29;12.50;;;5.88;;
54261;SDS011;40174;52.364;6.452;2022-12-18T10:42:01;19.70;;;6.90;;
54261;SDS011;40174;52.364;6.452;2022-12-18T10:44:38;12.93;;;5.75;;
54261;SDS011;40174;52.364;6.452;2022-12-18T10:47:05;15.23;;;6.13;;
54261;SDS011;40174;52.364;6.452;2022-12-18T10:49:37;18.25;;;5.30;;
54261;SDS011;40174;52.364;6.452;2022-12-18T10:52:14;13.63;;;4.95;;
54261;SDS011;40174;52.364;6.452;2022-12-18T10:54:47;11.20;;;5.32;;
54261;SDS011;40174;52.364;6.452;2022-12-18T10:57:19;13.15;;;4.63;;
54261;SDS011;40174;52.364;6.452;2022-12-18T11:00:00;13.30;;;4.50;;
54261;SDS011;40174;52.364;6.452;2022-12-18T11:02:49;7.93;;;3.67;;
54261;SDS011;40174;52.364;6.452;2022-12-18T11:05:26;10.98;;;4.55;;
54261;SDS011;40174;52.364;6.452;2022-12-18T11:07:56;13.77;;;4.50;;
54261;SDS011;40174;52.364;6.452;2022-12-18T11:10:28;11.30;;;4.75;;
54261;SDS011;40174;52.364;6.452;2022-12-18T11:13:08;12.63;;;5.32;;
54261;SDS011;40174;52.364;6.452;2022-12-18T11:15:36;13.80;;;4.68;;
54261;SDS011;40174;52.364;6.452;2022-12-18T11:18:03;9.52;;;4.15;;
54261;SDS011;40174;52.364;6.452;2022-12-18T11:20:31;9.80;;;4.65;;
54261;SDS011;40174;52.364;6.452;2022-12-18T11:23:00;16.17;;;5.15;;
54261;SDS011;40174;52.364;6.452;2022-12-18T11:25:30;9.52;;;4.28;;
54261;SDS011;40174;52.364;6.452;2022-12-18T11:27:58;14.25;;;4.95;;
54261;SDS011;40174;52.364;6.452;2022-12-18T11:30:28;12.35;;;4.72;;
54261;SDS011;40174;52.364;6.452;2022-12-18T11:32:56;11.48;;;4.53;;
54261;SDS011;40174;52.364;6.452;2022-12-18T11:35:32;12.55;;;4.45;;
54261;SDS011;40174;52.364;6.452;2022-12-18T11:38:05;7.20;;;3.33;;
54261;SDS011;40174;52.364;6.452;2022-12-18T11:40:42;9.60;;;3.92;;
54261;SDS011;40174;52.364;6.452;2022-12-18T11:43:13;8.77;;;3.90;;
54261;SDS011;40174;52.364;6.452;2022-12-18T11:45:43;9.90;;;3.53;;
54261;SDS011;40174;52.364;6.452;2022-12-18T11:48:17;10.75;;;4.10;;
54261;SDS011;40174;52.364;6.452;2022-12-18T11:50:48;9.07;;;3.70;;
54261;SDS011;40174;52.364;6.452;2022-12-18T11:53:17;10.98;;;4.05;;
54261;SDS011;40174;52.364;6.452;2022-12-18T11:55:49;11.73;;;4.05;;
54261;SDS011;40174;52.364;6.452;2022-12-18T11:58:30;11.52;;;4.20;;
54261;SDS011;40174;52.364;6.452;2022-12-18T12:01:10;10.52;;;3.92;;
54261;SDS011;40174;52.364;6.452;2022-12-18T12:04:03;8.75;;;3.45;;
54261;SDS011;40174;52.364;6.452;2022-12-18T12:06:49;11.45;;;3.53;;
54261;SDS011;40174;52.364;6.452;2022-12-18T12:09:26;10.23;;;3.33;;
54261;SDS011;40174;52.364;6.452;2022-12-18T12:12:04;10.18;;;3.70;;
54261;SDS011;40174;52.364;6.452;2022-12-18T12:14:45;12.02;;;3.30;;
54261;SDS011;40174;52.364;6.452;2022-12-18T12:17:23;11.68;;;4.45;;
54261;SDS011;40174;52.364;6.452;2022-12-18T12:19:59;10.13;;;3.80;;
54261;SDS011;40174;52.364;6.452;2022-12-18T12:22:35;7.55;;;3.63;;
54261;SDS011;40174;52.364;6.452;2022-12-18T12:25:15;10.35;;;3.90;;
54261;SDS011;40174;52.364;6.452;2022-12-18T12:27:56;16.85;;;4.43;;
54261;SDS011;40174;52.364;6.452;2022-12-18T12:30:38;11.93;;;3.50;;
54261;SDS011;40174;52.364;6.452;2022-12-18T12:33:19;9.95;;;3.70;;
54261;SDS011;40174;52.364;6.452;2022-12-18T12:35:56;10.38;;;3.63;;
54261;SDS011;40174;52.364;6.452;2022-12-18T12:38:34;8.10;;;3.22;;
54261;SDS011;40174;52.364;6.452;2022-12-18T12:41:07;9.02;;;3.22;;
54261;SDS011;40174;52.364;6.452;2022-12-18T12:43:59;10.43;;;3.70;;
54261;SDS011;40174;52.364;6.452;2022-12-18T12:46:29;10.52;;;3.58;;
54261;SDS011;40174;52.364;6.452;2022-12-18T12:48:59;10.43;;;3.42;;
54261;SDS011;40174;52.364;6.452;2022-12-18T12:51:30;9.82;;;3.25;;
54261;SDS011;40174;52.364;6.452;2022-12-18T12:54:00;9.93;;;3.90;;
54261;SDS011;40174;52.364;6.452;2022-12-18T12:56:32;10.05;;;3.50;;
54261;SDS011;40174;52.364;6.452;2022-12-18T12:59:09;9.05;;;3.25;;
54261;SDS011;40174;52.364;6.452;2022-12-18T13:01:47;10.30;;;3.95;;
54261;SDS011;40174;52.364;6.452;2022-12-18T13:04:21;10.32;;;3.47;;
54261;SDS011;40174;52.364;6.452;2022-12-18T13:06:56;12.73;;;4.93;;
54261;SDS011;40174;52.364;6.452;2022-12-18T13:09:30;14.80;;;3.97;;
54261;SDS011;40174;52.364;6.452;2022-12-18T13:12:04;11.80;;;3.95;;
54261;SDS011;40174;52.364;6.452;2022-12-18T13:14:56;9.27;;;3.70;;
54261;SDS011;40174;52.364;6.452;2022-12-18T13:17:39;8.55;;;3.28;;
54261;SDS011;40174;52.364;6.452;2022-12-18T13:20:06;9.30;;;3.35;;
54261;SDS011;40174;52.364;6.452;2022-12-18T13:22:36;7.40;;;3.17;;
54261;SDS011;40174;52.364;6.452;2022-12-18T13:27:58;9.10;;;3.88;;
54261;SDS011;40174;52.364;6.452;2022-12-18T13:36:15;11.68;;;3.33;;
54261;SDS011;40174;52.364;6.452;2022-12-18T13:38:55;14.32;;;4.53;;
54261;SDS011;40174;52.364;6.452;2022-12-18T13:41:37;9.88;;;4.28;;
54261;SDS011;40174;52.364;6.452;2022-12-18T13:44:10;13.30;;;4.47;;
54261;SDS011;40174;52.364;6.452;2022-12-18T13:46:43;8.02;;;3.25;;
54261;SDS011;40174;52.364;6.452;2022-12-18T13:49:17;7.50;;;3.42;;
54261;SDS011;40174;52.364;6.452;2022-12-18T13:51:49;9.07;;;3.05;;
54261;SDS011;40174;52.364;6.452;2022-12-18T13:54:18;9.02;;;3.95;;
54261;SDS011;40174;52.364;6.452;2022-12-18T13:56:59;9.85;;;3.28;;
54261;SDS011;40174;52.364;6.452;2022-12-18T13:59:26;12.75;;;4.25;;
54261;SDS011;40174;52.364;6.452;2022-12-18T14:02:01;10.95;;;3.47;;
54261;SDS011;40174;52.364;6.452;2022-12-18T14:04:39;15.15;;;4.25;;
54261;SDS011;40174;52.364;6.452;2022-12-18T14:07:06;9.80;;;4.30;;
54261;SDS011;40174;52.364;6.452;2022-12-18T14:09:37;9.23;;;4.15;;
54261;SDS011;40174;52.364;6.452;2022-12-18T14:12:11;9.13;;;3.78;;
54261;SDS011;40174;52.364;6.452;2022-12-18T14:14:59;9.10;;;3.67;;
54261;SDS011;40174;52.364;6.452;2022-12-18T14:17:28;12.18;;;4.05;;
54261;SDS011;40174;52.364;6.452;2022-12-18T14:19:55;8.20;;;3.47;;
54261;SDS011;40174;52.364;6.452;2022-12-18T14:22:22;10.98;;;3.65;;
54261;SDS011;40174;52.364;6.452;2022-12-18T14:27:46;10.57;;;4.10;;
54261;SDS011;40174;52.364;6.452;2022-12-18T14:30:24;12.27;;;4.07;;
54261;SDS011;40174;52.364;6.452;2022-12-18T14:33:03;9.00;;;3.45;;
54261;SDS011;40174;52.364;6.452;2022-12-18T14:35:31;10.57;;;4.10;;
54261;SDS011;40174;52.364;6.452;2022-12-18T14:38:09;11.38;;;3.85;;
54261;SDS011;40174;52.364;6.452;2022-12-18T14:40:53;11.73;;;3.70;;
54261;SDS011;40174;52.364;6.452;2022-12-18T14:43:24;12.98;;;4.22;;
54261;SDS011;40174;52.364;6.452;2022-12-18T14:45:51;8.63;;;3.55;;
54261;SDS011;40174;52.364;6.452;2022-12-18T14:48:21;10.57;;;4.03;;
54261;SDS011;40174;52.364;6.452;2022-12-18T14:50:55;9.23;;;3.80;;
54261;SDS011;40174;52.364;6.452;2022-12-18T14:53:27;8.18;;;3.85;;
54261;SDS011;40174;52.364;6.452;2022-12-18T14:55:59;11.13;;;3.70;;
54261;SDS011;40174;52.364;6.452;2022-12-18T14:58:27;12.25;;;4.15;;
54261;SDS011;40174;52.364;6.452;2022-12-18T15:00:54;8.90;;;4.35;;
54261;SDS011;40174;52.364;6.452;2022-12-18T15:03:22;8.40;;;3.83;;
54261;SDS011;40174;52.364;6.452;2022-12-18T15:05:48;9.10;;;3.35;;
54261;SDS011;40174;52.364;6.452;2022-12-18T15:08:27;9.10;;;3.95;;
54261;SDS011;40174;52.364;6.452;2022-12-18T15:10:56;8.10;;;3.50;;
54261;SDS011;40174;52.364;6.452;2022-12-18T15:13:23;12.10;;;4.10;;